Weather at Léopold Sédar Senghor International Airport

Public forecast

Using degrees Celsius for public forecast. Weather courtesy of forecast.io.

Current aviation weather report (METAR) for Léopold Sédar Senghor International Airport

2023/02/01 10:00 (retrieved 23 minutes ago)

GOOY 011000Z 02010KT CAVOK 21/17 Q1015

Aviation forecast (TAF) for Léopold Sédar Senghor International Airport

2023/02/01 06:30 (retrieved 4 hours ago)

TAF GOOY 010500Z 0106/0212 02015KT CAVOK